createdAt,value
2022-09-10T00:02:27.706Z,7.80
2022-09-10T00:05:18.296Z,8.35
2022-09-10T00:08:07.413Z,7.32
2022-09-10T00:10:57.890Z,8.23
2022-09-10T00:13:46.979Z,7.93
2022-09-10T00:16:36.505Z,6.85
2022-09-10T00:19:25.798Z,7.35
2022-09-10T00:22:15.256Z,7.70
2022-09-10T00:25:08.214Z,7.78
2022-09-10T00:28:00.394Z,8.45
2022-09-10T00:30:51.862Z,7.40
2022-09-10T00:33:42.006Z,7.75
2022-09-10T00:36:33.303Z,6.95
2022-09-10T00:39:22.192Z,8.07
2022-09-10T00:42:13.494Z,7.65
2022-09-10T00:45:06.030Z,7.88
2022-09-10T00:47:57.451Z,7.68
2022-09-10T00:50:48.742Z,7.53
2022-09-10T00:53:38.462Z,6.97
2022-09-10T00:56:27.512Z,7.88
2022-09-10T00:59:20.674Z,7.70
2022-09-10T01:02:11.911Z,7.13
2022-09-10T01:05:01.916Z,7.18
2022-09-10T01:07:53.309Z,7.15
2022-09-10T01:10:52.378Z,7.45
2022-09-10T01:13:59.123Z,7.63
2022-09-10T01:16:55.745Z,7.85
2022-09-10T01:20:20.707Z,7.45
2022-09-10T01:23:57.591Z,7.45
2022-09-10T01:27:04.422Z,7.28
2022-09-10T01:30:00.439Z,6.95
2022-09-10T01:32:59.773Z,7.68
2022-09-10T01:35:52.606Z,7.40
2022-09-10T01:38:43.407Z,8.73
2022-09-10T01:41:34.575Z,7.40
2022-09-10T01:44:42.876Z,8.18
2022-09-10T01:47:55.602Z,6.28
2022-09-10T01:50:50.910Z,6.57
2022-09-10T01:54:00.445Z,6.30
2022-09-10T01:56:55.526Z,6.35
2022-09-10T01:59:54.014Z,5.90
2022-09-10T02:02:50.089Z,6.43
2022-09-10T02:05:41.249Z,6.07
2022-09-10T02:08:34.294Z,5.97
2022-09-10T02:11:23.711Z,6.25
2022-09-10T02:14:14.482Z,5.70
2022-09-10T02:17:03.794Z,5.32
2022-09-10T02:19:56.290Z,6.30
2022-09-10T02:22:50.199Z,5.30
2022-09-10T02:25:39.006Z,5.60
2022-09-10T02:28:28.937Z,5.68
2022-09-10T02:31:18.902Z,5.55
2022-09-10T02:34:07.775Z,5.80
2022-09-10T02:36:58.613Z,5.38
2022-09-10T02:39:47.719Z,5.88
2022-09-10T02:42:37.698Z,5.88
2022-09-10T02:45:27.308Z,5.68
2022-09-10T02:48:18.412Z,6.07
2022-09-10T02:51:07.522Z,5.10
2022-09-10T02:53:58.292Z,5.13
2022-09-10T02:56:48.151Z,6.18
2022-09-10T02:59:37.751Z,5.03
2022-09-10T03:02:27.551Z,5.80
2022-09-10T03:05:16.586Z,5.60
2022-09-10T03:08:06.379Z,6.35
2022-09-10T03:10:59.794Z,6.55
2022-09-10T03:13:50.537Z,5.53
2022-09-10T03:16:40.209Z,7.03
2022-09-10T03:19:28.721Z,6.30
2022-09-10T03:22:17.490Z,5.65
2022-09-10T03:25:08.350Z,6.32
2022-09-10T03:28:00.091Z,5.68
2022-09-10T03:30:49.040Z,6.80
2022-09-10T03:33:38.640Z,5.50
2022-09-10T03:36:29.693Z,5.18
2022-09-10T03:39:18.903Z,5.50
2022-09-10T03:42:08.566Z,5.55
2022-09-10T03:44:59.443Z,5.78
2022-09-10T03:47:49.201Z,5.55
2022-09-10T03:50:38.404Z,5.80
2022-09-10T03:53:27.025Z,5.65
2022-09-10T03:56:20.239Z,6.38
2022-09-10T03:59:09.755Z,5.55
2022-09-10T04:02:00.405Z,5.38
2022-09-10T04:04:50.273Z,5.70
2022-09-10T04:07:39.334Z,4.95
2022-09-10T04:10:29.261Z,5.32
2022-09-10T04:13:18.298Z,4.90
2022-09-10T04:16:07.761Z,4.82
2022-09-10T04:18:58.469Z,4.85
2022-09-10T04:21:47.735Z,4.72
2022-09-10T04:24:36.974Z,5.05
2022-09-10T04:27:26.911Z,5.25
2022-09-10T04:30:16.306Z,5.43
2022-09-10T04:33:05.685Z,5.13
2022-09-10T04:35:56.591Z,4.68
2022-09-10T04:38:45.783Z,5.40
2022-09-10T04:41:34.933Z,5.43
2022-09-10T04:44:24.018Z,4.78
2022-09-10T04:47:12.834Z,4.70
2022-09-10T04:50:01.851Z,5.28
2022-09-10T04:52:52.372Z,4.70
2022-09-10T04:55:44.795Z,5.50
2022-09-10T04:58:38.460Z,4.57
2022-09-10T05:01:29.069Z,5.65
2022-09-10T05:04:17.856Z,5.38
2022-09-10T05:07:07.146Z,4.60
2022-09-10T05:09:57.411Z,4.63
2022-09-10T05:12:47.063Z,4.47
2022-09-10T05:15:36.317Z,4.60
2022-09-10T05:18:26.013Z,5.72
2022-09-10T05:21:15.006Z,4.47
2022-09-10T05:24:03.999Z,5.00
2022-09-10T05:26:54.736Z,5.22
2022-09-10T05:29:43.328Z,5.93
2022-09-10T05:32:32.986Z,4.82
2022-09-10T05:35:21.848Z,6.05
2022-09-10T05:38:13.057Z,4.40
2022-09-10T05:41:02.894Z,5.47
2022-09-10T05:43:53.677Z,4.22
2022-09-10T05:46:43.111Z,5.50
2022-09-10T05:49:32.023Z,4.80
2022-09-10T05:52:22.170Z,5.20
2022-09-10T05:55:12.439Z,4.47
2022-09-10T05:58:02.992Z,5.00
2022-09-10T06:00:54.980Z,4.80
2022-09-10T06:03:44.565Z,5.90
2022-09-10T06:06:33.624Z,6.00
2022-09-10T06:09:23.259Z,4.97
2022-09-10T06:12:12.026Z,4.70
2022-09-10T06:15:00.924Z,5.07
2022-09-10T06:17:55.365Z,3.97
2022-09-10T06:20:44.703Z,6.45
2022-09-10T06:23:33.396Z,4.10
2022-09-10T06:26:22.892Z,6.32
2022-09-10T06:29:12.965Z,7.30
2022-09-10T06:32:02.311Z,7.80
2022-09-10T06:34:52.510Z,9.02
2022-09-10T06:37:41.814Z,9.23
2022-09-10T06:40:31.186Z,9.80
2022-09-10T06:43:20.423Z,9.32
2022-09-10T06:46:40.630Z,9.57
2022-09-10T06:49:24.125Z,7.90
2022-09-10T06:52:13.974Z,8.50
2022-09-10T06:55:03.102Z,10.30
2022-09-10T06:57:51.977Z,9.80
2022-09-10T07:00:41.747Z,8.32
2022-09-10T07:03:30.557Z,9.77
2022-09-10T07:06:20.937Z,6.88
2022-09-10T07:09:11.048Z,10.50
2022-09-10T07:12:00.521Z,8.73
2022-09-10T07:14:49.774Z,7.13
2022-09-10T07:17:39.508Z,6.13
2022-09-10T07:20:31.034Z,8.65
2022-09-10T07:23:22.110Z,8.95
2022-09-10T07:26:15.147Z,6.07
2022-09-10T07:29:04.565Z,4.78
2022-09-10T07:31:53.614Z,4.93
2022-09-10T07:34:43.429Z,6.88
2022-09-10T07:37:32.526Z,5.10
2022-09-10T07:40:23.526Z,4.55
2022-09-10T07:43:15.698Z,3.72
2022-09-10T07:46:04.804Z,4.50
2022-09-10T07:48:56.697Z,3.75
2022-09-10T07:51:46.072Z,3.75
2022-09-10T07:54:35.258Z,3.60
2022-09-10T07:57:24.596Z,5.30
2022-09-10T08:00:18.772Z,4.68
2022-09-10T08:03:07.724Z,3.25
2022-09-10T08:05:56.695Z,4.35
2022-09-10T08:08:45.779Z,2.80
2022-09-10T08:11:35.007Z,3.10
2022-09-10T08:14:24.281Z,4.22
2022-09-10T08:17:15.125Z,4.20
2022-09-10T08:20:06.752Z,4.75
2022-09-10T08:22:58.657Z,4.95
2022-09-10T08:25:51.696Z,3.20
2022-09-10T08:28:41.693Z,3.80
2022-09-10T08:31:30.681Z,4.00
2022-09-10T08:34:21.430Z,4.13
2022-09-10T08:37:10.493Z,3.70
2022-09-10T08:39:59.795Z,4.40
2022-09-10T08:42:50.625Z,3.58
2022-09-10T08:45:40.563Z,3.05
2022-09-10T08:48:32.644Z,3.67
2022-09-10T08:51:29.423Z,3.28
2022-09-10T08:54:21.576Z,3.50
2022-09-10T08:57:23.880Z,3.67
2022-09-10T09:00:26.471Z,3.13
2022-09-10T09:03:23.100Z,3.28
2022-09-10T09:06:26.940Z,2.67
2022-09-10T09:09:16.879Z,2.40
2022-09-10T09:12:17.106Z,2.55
2022-09-10T09:15:12.871Z,2.80
2022-09-10T09:18:19.539Z,2.70
2022-09-10T09:21:17.920Z,2.33
2022-09-10T09:24:18.274Z,2.35
2022-09-10T09:27:13.088Z,1.90
2022-09-10T09:30:05.037Z,1.52
2022-09-10T09:32:55.828Z,2.00
2022-09-10T09:35:49.013Z,1.90
2022-09-10T09:38:41.541Z,1.60
2022-09-10T09:41:37.510Z,1.40
2022-09-10T09:44:28.874Z,1.70
2022-09-10T09:47:18.581Z,2.20
2022-09-10T09:50:08.425Z,2.72
2022-09-10T09:52:57.766Z,1.52
2022-09-10T09:55:48.901Z,1.77
2022-09-10T09:58:40.257Z,2.33
2022-09-10T10:01:42.755Z,1.50
2022-09-10T10:04:34.995Z,1.83
2022-09-10T10:07:31.759Z,1.58
2022-09-10T10:10:25.815Z,1.20
2022-09-10T10:13:22.705Z,1.17
2022-09-10T10:16:23.659Z,1.90
2022-09-10T10:19:29.654Z,2.38
2022-09-10T10:22:23.389Z,1.50
2022-09-10T10:25:48.956Z,1.73
2022-09-10T10:28:38.016Z,1.27
2022-09-10T10:31:40.095Z,1.42
2022-09-10T10:34:45.565Z,1.83
2022-09-10T10:37:42.256Z,1.40
2022-09-10T10:40:35.095Z,1.30
2022-09-10T10:43:32.390Z,2.55
2022-09-10T10:46:23.137Z,2.08
2022-09-10T10:49:25.788Z,2.13
2022-09-10T10:52:20.233Z,1.30
2022-09-10T10:55:17.551Z,1.30
2022-09-10T10:58:21.886Z,1.20
2022-09-10T11:01:17.561Z,1.00
2022-09-10T11:04:25.066Z,1.48
2022-09-10T11:07:19.821Z,1.40
2022-09-10T11:10:16.155Z,1.60
2022-09-10T11:13:13.846Z,1.35
2022-09-10T11:16:07.306Z,1.00
2022-09-10T11:19:03.024Z,1.17
2022-09-10T11:21:58.924Z,1.10
2022-09-10T11:24:52.636Z,1.00
2022-09-10T11:27:47.023Z,1.25
2022-09-10T11:30:40.156Z,1.52
2022-09-10T11:33:34.934Z,1.05
2022-09-10T11:36:29.948Z,1.52
2022-09-10T11:39:25.573Z,0.77
2022-09-10T11:42:21.564Z,0.90
2022-09-10T11:45:22.116Z,0.82
2022-09-10T11:48:17.816Z,0.88
2022-09-10T11:51:17.907Z,0.88
2022-09-10T11:54:13.317Z,0.98
2022-09-10T11:57:11.900Z,0.75
2022-09-10T12:00:08.832Z,0.93
2022-09-10T12:03:27.426Z,1.00
2022-09-10T12:06:22.359Z,0.73
2022-09-10T12:09:16.830Z,0.80
2022-09-10T12:12:15.183Z,0.70
2022-09-10T12:15:09.863Z,1.48
2022-09-10T12:18:04.244Z,0.88
2022-09-10T12:20:56.991Z,1.20
2022-09-10T12:23:46.536Z,1.10
2022-09-10T12:26:45.210Z,1.05
2022-09-10T12:29:38.301Z,1.02
2022-09-10T12:32:30.962Z,1.25
2022-09-10T12:35:48.787Z,0.77
2022-09-10T12:38:57.998Z,0.80
2022-09-10T12:42:02.045Z,0.77
2022-09-10T12:44:52.829Z,0.98
2022-09-10T12:47:50.561Z,1.00
2022-09-10T12:50:46.361Z,1.02
2022-09-10T12:54:17.629Z,0.90
2022-09-10T12:57:22.694Z,0.85
2022-09-10T13:00:23.892Z,0.80
2022-09-10T13:03:18.438Z,0.55
2022-09-10T13:06:09.785Z,1.05
2022-09-10T13:09:00.012Z,0.93
2022-09-10T13:11:53.430Z,0.90
2022-09-10T13:14:49.753Z,1.80
2022-09-10T13:18:01.767Z,0.73
2022-09-10T13:20:50.539Z,0.90
2022-09-10T13:23:49.691Z,1.05
2022-09-10T13:26:52.537Z,0.55
2022-09-10T13:29:44.355Z,0.55
2022-09-10T13:32:36.590Z,0.75
2022-09-10T13:36:05.681Z,0.57
2022-09-10T13:39:25.066Z,0.60
2022-09-10T13:42:18.318Z,0.77
2022-09-10T13:45:23.601Z,0.90
2022-09-10T13:48:15.031Z,0.75
2022-09-10T13:51:16.663Z,0.93
2022-09-10T13:54:08.749Z,1.00
2022-09-10T13:56:59.890Z,0.98
2022-09-10T13:59:51.877Z,0.85
2022-09-10T14:02:45.748Z,0.47
2022-09-10T14:05:39.416Z,0.70
2022-09-10T14:08:33.333Z,0.70
2022-09-10T14:11:25.625Z,1.02
2022-09-10T14:14:18.679Z,0.90
2022-09-10T14:17:12.138Z,0.80
2022-09-10T14:20:01.826Z,1.00
2022-09-10T14:22:51.362Z,0.50
2022-09-10T14:25:43.824Z,0.50
2022-09-10T14:28:33.052Z,0.98
2022-09-10T14:31:28.918Z,0.85
2022-09-10T14:34:32.664Z,1.20
2022-09-10T14:37:33.775Z,0.90
2022-09-10T14:40:24.457Z,1.13
2022-09-10T14:43:27.936Z,0.70
2022-09-10T14:46:56.514Z,0.80
2022-09-10T14:49:47.598Z,0.57
2022-09-10T14:52:37.643Z,0.70
2022-09-10T14:55:27.740Z,0.68
2022-09-10T14:58:18.090Z,1.27
2022-09-10T15:01:09.560Z,1.15
2022-09-10T15:03:59.537Z,0.70
2022-09-10T15:06:48.563Z,0.70
2022-09-10T15:09:37.808Z,0.65
2022-09-10T15:12:29.355Z,0.75
2022-09-10T15:15:20.240Z,1.00
2022-09-10T15:18:14.713Z,0.73
2022-09-10T15:21:06.271Z,0.75
2022-09-10T15:23:55.813Z,0.90
2022-09-10T15:26:45.525Z,0.80
2022-09-10T15:29:34.458Z,1.02
2022-09-10T15:32:25.180Z,0.82
2022-09-10T15:35:14.185Z,0.70
2022-09-10T15:38:03.401Z,0.68
2022-09-10T15:40:53.546Z,0.70
2022-09-10T15:43:44.237Z,1.30
2022-09-10T15:46:35.805Z,0.80
2022-09-10T15:49:27.044Z,0.98
2022-09-10T15:52:16.042Z,1.00
2022-09-10T15:55:07.069Z,0.80
2022-09-10T15:57:56.008Z,1.20
2022-09-10T16:00:45.335Z,0.90
2022-09-10T16:03:34.712Z,1.00
2022-09-10T16:06:27.595Z,0.90
2022-09-10T16:09:16.397Z,1.23
2022-09-10T16:12:05.682Z,1.00
2022-09-10T16:14:55.749Z,1.10
2022-09-10T16:17:44.754Z,0.82
2022-09-10T16:20:35.830Z,0.88
2022-09-10T16:23:25.955Z,1.00
2022-09-10T16:26:18.060Z,1.85
2022-09-10T16:29:09.179Z,0.85
2022-09-10T16:31:58.921Z,0.77
2022-09-10T16:34:47.700Z,0.93
2022-09-10T16:37:37.468Z,1.10
2022-09-10T16:40:28.355Z,0.70
2022-09-10T16:43:17.696Z,0.50
2022-09-10T16:46:09.304Z,0.90
2022-09-10T16:48:59.526Z,1.05
2022-09-10T16:51:50.808Z,1.15
2022-09-10T16:54:40.437Z,1.27
2022-09-10T16:57:32.513Z,2.88
2022-09-10T17:00:22.595Z,2.05
2022-09-10T17:03:11.610Z,1.85
2022-09-10T17:06:01.403Z,2.03
2022-09-10T17:08:50.713Z,3.50
2022-09-10T17:11:39.693Z,1.38
2022-09-10T17:14:30.596Z,1.30
2022-09-10T17:17:20.482Z,1.52
2022-09-10T17:20:11.317Z,1.40
2022-09-10T17:23:00.287Z,1.30
2022-09-10T17:25:50.011Z,1.67
2022-09-10T17:28:40.367Z,1.30
2022-09-10T17:31:31.875Z,1.30
2022-09-10T17:34:21.774Z,1.48
2022-09-10T17:37:11.476Z,0.93
2022-09-10T17:40:01.134Z,1.17
2022-09-10T17:42:51.030Z,1.33
2022-09-10T17:45:40.956Z,1.42
2022-09-10T17:48:31.572Z,4.55
2022-09-10T17:51:23.114Z,4.10
2022-09-10T17:54:13.269Z,3.80
2022-09-10T17:57:04.541Z,3.90
2022-09-10T17:59:54.499Z,3.65
2022-09-10T18:02:43.605Z,1.80
2022-09-10T18:05:37.333Z,2.20
2022-09-10T18:08:26.148Z,1.10
2022-09-10T18:11:18.257Z,1.38
2022-09-10T18:14:08.572Z,1.60
2022-09-10T18:16:58.447Z,1.48
2022-09-10T18:19:47.024Z,1.58
2022-09-10T18:22:38.222Z,1.63
2022-09-10T18:25:31.001Z,1.77
2022-09-10T18:28:20.073Z,1.55
2022-09-10T18:31:09.339Z,1.65
2022-09-10T18:33:58.977Z,2.05
2022-09-10T18:36:47.778Z,1.52
2022-09-10T18:39:38.039Z,1.63
2022-09-10T18:42:27.755Z,1.67
2022-09-10T18:45:17.409Z,1.33
2022-09-10T18:48:06.392Z,1.85
2022-09-10T18:50:55.718Z,1.40
2022-09-10T18:53:45.944Z,1.50
2022-09-10T18:56:36.864Z,1.55
2022-09-10T18:59:26.837Z,1.90
2022-09-10T19:02:18.247Z,1.65
2022-09-10T19:05:11.654Z,2.72
2022-09-10T19:08:01.693Z,2.00
2022-09-10T19:10:51.274Z,1.40
2022-09-10T19:13:42.070Z,1.95
2022-09-10T19:16:32.963Z,1.85
2022-09-10T19:19:22.624Z,1.80
2022-09-10T19:22:11.840Z,2.42
2022-09-10T19:25:01.388Z,1.67
2022-09-10T19:27:50.709Z,1.95
2022-09-10T19:30:41.859Z,2.25
2022-09-10T19:33:32.449Z,1.88
2022-09-10T19:36:21.632Z,1.63
2022-09-10T19:39:12.702Z,2.67
2022-09-10T19:42:01.629Z,1.85
2022-09-10T19:44:50.853Z,2.28
2022-09-10T19:47:41.276Z,2.10
2022-09-10T19:50:30.319Z,1.88
2022-09-10T19:53:19.226Z,1.95
2022-09-10T19:56:09.722Z,2.00
2022-09-10T19:59:00.819Z,1.88
2022-09-10T20:01:49.977Z,1.80
2022-09-10T20:04:40.252Z,3.13
2022-09-10T20:07:31.448Z,2.30
2022-09-10T20:10:20.560Z,2.00
2022-09-10T20:13:10.179Z,2.33
2022-09-10T20:16:01.869Z,1.80
2022-09-10T20:18:51.337Z,1.92
2022-09-10T20:21:42.374Z,2.30
2022-09-10T20:24:32.120Z,2.05
2022-09-10T20:27:21.159Z,2.03
2022-09-10T20:30:10.922Z,2.17
2022-09-10T20:33:01.708Z,1.73
2022-09-10T20:35:50.984Z,2.25
2022-09-10T20:38:43.313Z,1.58
2022-09-10T20:41:32.145Z,1.77
2022-09-10T20:44:21.242Z,2.05
2022-09-10T20:47:10.547Z,1.63
2022-09-10T20:49:59.433Z,2.60
2022-09-10T20:52:48.951Z,1.55
2022-09-10T20:55:39.694Z,1.58
2022-09-10T20:58:28.781Z,1.67
2022-09-10T21:01:20.541Z,1.58
2022-09-10T21:04:10.570Z,1.65
2022-09-10T21:07:00.662Z,1.42
2022-09-10T21:09:49.726Z,1.30
2022-09-10T21:12:40.314Z,2.13
2022-09-10T21:15:30.247Z,1.90
2022-09-10T21:18:19.172Z,1.52
2022-09-10T21:21:10.323Z,2.10
2022-09-10T21:24:01.089Z,1.83
2022-09-10T21:26:50.743Z,1.60
2022-09-10T21:29:41.751Z,1.75
2022-09-10T21:32:31.105Z,1.92
2022-09-10T21:35:20.358Z,1.48
2022-09-10T21:38:09.994Z,1.70
2022-09-10T21:40:59.599Z,1.27
2022-09-10T21:43:49.250Z,1.45
2022-09-10T21:46:40.695Z,1.80
2022-09-10T21:49:29.840Z,1.48
2022-09-10T21:52:19.315Z,1.20
2022-09-10T21:55:08.676Z,2.30
2022-09-10T21:57:58.261Z,1.55
2022-09-10T22:00:47.162Z,1.50
2022-09-10T22:03:37.505Z,1.60
2022-09-10T22:06:27.842Z,2.00
2022-09-10T22:09:17.849Z,1.35
2022-09-10T22:12:07.448Z,1.25
2022-09-10T22:14:57.114Z,1.20
2022-09-10T22:17:46.171Z,1.52
2022-09-10T22:20:37.752Z,1.20
2022-09-10T22:23:26.968Z,1.30
2022-09-10T22:26:17.068Z,0.80
2022-09-10T22:29:06.461Z,0.95
2022-09-10T22:31:55.736Z,1.40
2022-09-10T22:34:46.618Z,1.70
2022-09-10T22:37:37.179Z,1.23
2022-09-10T22:40:26.420Z,1.55
2022-09-10T22:43:15.785Z,1.10
2022-09-10T22:46:07.175Z,1.63
2022-09-10T22:48:57.334Z,1.27
2022-09-10T22:51:46.622Z,1.05
2022-09-10T22:54:36.764Z,0.80
2022-09-10T22:57:25.736Z,0.93
2022-09-10T23:00:15.586Z,0.95
2022-09-10T23:03:06.328Z,0.82
2022-09-10T23:06:04.151Z,1.10
2022-09-10T23:08:54.453Z,1.00
2022-09-10T23:11:45.390Z,0.90
2022-09-10T23:14:34.923Z,1.13
2022-09-10T23:17:23.865Z,0.70
2022-09-10T23:20:13.847Z,0.90
2022-09-10T23:23:03.735Z,0.90
2022-09-10T23:25:52.885Z,0.90
2022-09-10T23:28:43.723Z,0.90
2022-09-10T23:31:33.687Z,0.75
2022-09-10T23:34:23.726Z,0.90
2022-09-10T23:37:12.938Z,1.08
2022-09-10T23:40:03.499Z,0.60
2022-09-10T23:42:52.917Z,1.05
2022-09-10T23:45:44.523Z,0.95
2022-09-10T23:48:33.680Z,0.80
2022-09-10T23:51:23.085Z,0.73
2022-09-10T23:54:12.979Z,0.80
2022-09-10T23:57:02.822Z,0.90
2022-09-10T23:59:52.611Z,1.15
